sensor_id;sensor_type;location;lat;lon;timestamp;P1;durP1;ratioP1;P2;durP2;ratioP2
66256;SDS011;53049;43.446;3.698;2022-10-22T00:02:05;22.58;;;9.55;;
66256;SDS011;53049;43.446;3.698;2022-10-22T00:04:32;15.75;;;8.88;;
66256;SDS011;53049;43.446;3.698;2022-10-22T00:06:58;20.95;;;8.35;;
66256;SDS011;53049;43.446;3.698;2022-10-22T00:09:24;19.50;;;8.43;;
66256;SDS011;53049;43.446;3.698;2022-10-22T00:11:49;19.30;;;8.05;;
66256;SDS011;53049;43.446;3.698;2022-10-22T00:14:15;19.70;;;8.35;;
66256;SDS011;53049;43.446;3.698;2022-10-22T00:16:41;18.42;;;8.60;;
66256;SDS011;53049;43.446;3.698;2022-10-22T00:19:07;19.45;;;8.27;;
66256;SDS011;53049;43.446;3.698;2022-10-22T00:21:33;20.95;;;7.50;;
66256;SDS011;53049;43.446;3.698;2022-10-22T00:24:00;17.25;;;8.00;;
66256;SDS011;53049;43.446;3.698;2022-10-22T00:26:25;20.58;;;7.82;;
66256;SDS011;53049;43.446;3.698;2022-10-22T00:28:52;20.33;;;7.80;;
66256;SDS011;53049;43.446;3.698;2022-10-22T00:31:18;20.77;;;7.53;;
66256;SDS011;53049;43.446;3.698;2022-10-22T00:33:45;20.45;;;8.20;;
66256;SDS011;53049;43.446;3.698;2022-10-22T00:36:12;18.48;;;8.05;;
66256;SDS011;53049;43.446;3.698;2022-10-22T00:38:38;18.60;;;7.60;;
66256;SDS011;53049;43.446;3.698;2022-10-22T00:41:04;18.88;;;7.13;;
66256;SDS011;53049;43.446;3.698;2022-10-22T00:43:30;19.02;;;7.18;;
66256;SDS011;53049;43.446;3.698;2022-10-22T00:45:55;18.17;;;7.07;;
66256;SDS011;53049;43.446;3.698;2022-10-22T00:48:22;21.20;;;6.82;;
66256;SDS011;53049;43.446;3.698;2022-10-22T00:55:58;19.55;;;7.60;;
66256;SDS011;53049;43.446;3.698;2022-10-22T00:58:27;16.20;;;6.53;;
66256;SDS011;53049;43.446;3.698;2022-10-22T01:00:55;20.63;;;8.00;;
66256;SDS011;53049;43.446;3.698;2022-10-22T01:03:21;16.98;;;7.55;;
66256;SDS011;53049;43.446;3.698;2022-10-22T01:06:00;18.67;;;7.40;;
66256;SDS011;53049;43.446;3.698;2022-10-22T01:14:12;17.45;;;7.53;;
66256;SDS011;53049;43.446;3.698;2022-10-22T01:16:46;17.35;;;6.82;;
66256;SDS011;53049;43.446;3.698;2022-10-22T01:19:32;16.98;;;6.95;;
66256;SDS011;53049;43.446;3.698;2022-10-22T01:22:11;15.00;;;6.43;;
66256;SDS011;53049;43.446;3.698;2022-10-22T01:31:13;16.48;;;6.60;;
66256;SDS011;53049;43.446;3.698;2022-10-22T01:33:42;17.05;;;7.07;;
66256;SDS011;53049;43.446;3.698;2022-10-22T01:36:10;12.30;;;6.43;;
66256;SDS011;53049;43.446;3.698;2022-10-22T01:38:36;15.30;;;6.28;;
66256;SDS011;53049;43.446;3.698;2022-10-22T01:41:05;19.60;;;7.18;;
66256;SDS011;53049;43.446;3.698;2022-10-22T01:43:31;14.77;;;7.28;;
66256;SDS011;53049;43.446;3.698;2022-10-22T01:45:58;14.85;;;7.47;;
66256;SDS011;53049;43.446;3.698;2022-10-22T02:02:42;12.70;;;6.20;;
66256;SDS011;53049;43.446;3.698;2022-10-22T02:05:15;21.10;;;6.20;;
66256;SDS011;53049;43.446;3.698;2022-10-22T02:07:47;14.75;;;6.35;;
66256;SDS011;53049;43.446;3.698;2022-10-22T02:10:20;17.40;;;6.65;;
66256;SDS011;53049;43.446;3.698;2022-10-22T02:12:48;13.48;;;5.80;;
66256;SDS011;53049;43.446;3.698;2022-10-22T02:15:16;12.38;;;6.03;;
66256;SDS011;53049;43.446;3.698;2022-10-22T02:17:44;14.95;;;5.97;;
66256;SDS011;53049;43.446;3.698;2022-10-22T02:20:15;17.08;;;6.45;;
66256;SDS011;53049;43.446;3.698;2022-10-22T02:22:46;10.70;;;5.45;;
66256;SDS011;53049;43.446;3.698;2022-10-22T02:25:11;14.25;;;5.32;;
66256;SDS011;53049;43.446;3.698;2022-10-22T02:27:40;13.32;;;5.82;;
66256;SDS011;53049;43.446;3.698;2022-10-22T02:30:14;12.52;;;4.90;;
66256;SDS011;53049;43.446;3.698;2022-10-22T02:32:53;15.43;;;5.32;;
66256;SDS011;53049;43.446;3.698;2022-10-22T02:35:20;15.95;;;6.38;;
66256;SDS011;53049;43.446;3.698;2022-10-22T02:37:48;15.10;;;5.63;;
66256;SDS011;53049;43.446;3.698;2022-10-22T02:40:15;11.75;;;5.30;;
66256;SDS011;53049;43.446;3.698;2022-10-22T02:42:41;13.52;;;5.60;;
66256;SDS011;53049;43.446;3.698;2022-10-22T02:45:08;12.60;;;4.78;;
66256;SDS011;53049;43.446;3.698;2022-10-22T02:47:34;12.40;;;5.07;;
66256;SDS011;53049;43.446;3.698;2022-10-22T02:50:00;10.65;;;4.60;;
66256;SDS011;53049;43.446;3.698;2022-10-22T02:52:25;10.82;;;4.60;;
66256;SDS011;53049;43.446;3.698;2022-10-22T02:54:51;16.80;;;5.28;;
66256;SDS011;53049;43.446;3.698;2022-10-22T02:57:17;12.77;;;4.80;;
66256;SDS011;53049;43.446;3.698;2022-10-22T02:59:42;10.25;;;5.00;;
66256;SDS011;53049;43.446;3.698;2022-10-22T03:02:08;8.35;;;4.30;;
66256;SDS011;53049;43.446;3.698;2022-10-22T03:04:34;11.10;;;4.90;;
66256;SDS011;53049;43.446;3.698;2022-10-22T03:06:59;10.90;;;3.95;;
66256;SDS011;53049;43.446;3.698;2022-10-22T03:09:25;10.85;;;4.38;;
66256;SDS011;53049;43.446;3.698;2022-10-22T03:11:51;14.13;;;4.55;;
66256;SDS011;53049;43.446;3.698;2022-10-22T03:14:17;14.68;;;4.43;;
66256;SDS011;53049;43.446;3.698;2022-10-22T03:16:43;9.93;;;4.43;;
66256;SDS011;53049;43.446;3.698;2022-10-22T03:19:08;12.27;;;4.60;;
66256;SDS011;53049;43.446;3.698;2022-10-22T03:21:36;11.55;;;4.38;;
66256;SDS011;53049;43.446;3.698;2022-10-22T03:24:09;9.45;;;4.20;;
66256;SDS011;53049;43.446;3.698;2022-10-22T03:26:39;11.20;;;4.05;;
66256;SDS011;53049;43.446;3.698;2022-10-22T03:29:08;12.00;;;4.90;;
66256;SDS011;53049;43.446;3.698;2022-10-22T03:31:35;12.05;;;4.95;;
66256;SDS011;53049;43.446;3.698;2022-10-22T03:34:01;21.40;;;5.63;;
66256;SDS011;53049;43.446;3.698;2022-10-22T03:36:26;14.05;;;5.25;;
66256;SDS011;53049;43.446;3.698;2022-10-22T03:38:52;12.75;;;4.70;;
66256;SDS011;53049;43.446;3.698;2022-10-22T03:41:18;12.10;;;4.70;;
66256;SDS011;53049;43.446;3.698;2022-10-22T03:43:44;14.30;;;4.55;;
66256;SDS011;53049;43.446;3.698;2022-10-22T03:46:14;13.10;;;4.88;;
66256;SDS011;53049;43.446;3.698;2022-10-22T03:48:40;14.45;;;4.50;;
66256;SDS011;53049;43.446;3.698;2022-10-22T03:51:06;13.40;;;4.80;;
66256;SDS011;53049;43.446;3.698;2022-10-22T03:53:31;12.25;;;4.63;;
66256;SDS011;53049;43.446;3.698;2022-10-22T03:55:57;13.40;;;5.28;;
66256;SDS011;53049;43.446;3.698;2022-10-22T03:58:23;17.17;;;5.45;;
66256;SDS011;53049;43.446;3.698;2022-10-22T04:00:48;12.10;;;4.72;;
66256;SDS011;53049;43.446;3.698;2022-10-22T04:03:14;14.43;;;4.50;;
66256;SDS011;53049;43.446;3.698;2022-10-22T04:05:39;10.43;;;4.57;;
66256;SDS011;53049;43.446;3.698;2022-10-22T04:08:05;15.88;;;5.22;;
66256;SDS011;53049;43.446;3.698;2022-10-22T04:10:31;13.75;;;5.05;;
66256;SDS011;53049;43.446;3.698;2022-10-22T04:12:56;10.98;;;4.55;;
66256;SDS011;53049;43.446;3.698;2022-10-22T04:15:22;11.75;;;4.70;;
66256;SDS011;53049;43.446;3.698;2022-10-22T04:17:50;11.27;;;4.43;;
66256;SDS011;53049;43.446;3.698;2022-10-22T04:20:16;15.70;;;4.70;;
66256;SDS011;53049;43.446;3.698;2022-10-22T04:22:42;12.23;;;4.70;;
66256;SDS011;53049;43.446;3.698;2022-10-22T04:25:07;16.02;;;4.82;;
66256;SDS011;53049;43.446;3.698;2022-10-22T04:27:33;18.40;;;4.95;;
66256;SDS011;53049;43.446;3.698;2022-10-22T04:29:59;12.38;;;4.47;;
66256;SDS011;53049;43.446;3.698;2022-10-22T04:32:26;14.50;;;4.93;;
66256;SDS011;53049;43.446;3.698;2022-10-22T04:34:52;13.80;;;4.95;;
66256;SDS011;53049;43.446;3.698;2022-10-22T04:37:18;17.17;;;4.93;;
66256;SDS011;53049;43.446;3.698;2022-10-22T04:39:44;14.10;;;5.13;;
66256;SDS011;53049;43.446;3.698;2022-10-22T04:42:10;9.15;;;4.60;;
66256;SDS011;53049;43.446;3.698;2022-10-22T04:44:36;16.75;;;5.70;;
66256;SDS011;53049;43.446;3.698;2022-10-22T04:47:02;13.50;;;4.72;;
66256;SDS011;53049;43.446;3.698;2022-10-22T04:49:28;14.60;;;4.68;;
66256;SDS011;53049;43.446;3.698;2022-10-22T04:51:53;12.93;;;4.88;;
66256;SDS011;53049;43.446;3.698;2022-10-22T04:54:19;11.23;;;4.88;;
66256;SDS011;53049;43.446;3.698;2022-10-22T04:56:45;16.33;;;4.60;;
66256;SDS011;53049;43.446;3.698;2022-10-22T04:59:10;9.95;;;5.38;;
66256;SDS011;53049;43.446;3.698;2022-10-22T05:01:37;12.38;;;4.90;;
66256;SDS011;53049;43.446;3.698;2022-10-22T05:04:05;18.38;;;5.00;;
66256;SDS011;53049;43.446;3.698;2022-10-22T05:06:32;13.15;;;4.55;;
66256;SDS011;53049;43.446;3.698;2022-10-22T05:09:00;10.15;;;4.10;;
66256;SDS011;53049;43.446;3.698;2022-10-22T05:11:32;9.48;;;4.15;;
66256;SDS011;53049;43.446;3.698;2022-10-22T05:14:00;12.27;;;4.05;;
66256;SDS011;53049;43.446;3.698;2022-10-22T05:16:28;10.13;;;4.40;;
66256;SDS011;53049;43.446;3.698;2022-10-22T05:18:55;21.35;;;5.75;;
66256;SDS011;53049;43.446;3.698;2022-10-22T05:21:22;11.18;;;5.50;;
66256;SDS011;53049;43.446;3.698;2022-10-22T05:23:48;17.60;;;5.22;;
66256;SDS011;53049;43.446;3.698;2022-10-22T05:26:15;13.18;;;5.40;;
66256;SDS011;53049;43.446;3.698;2022-10-22T05:28:43;13.43;;;4.70;;
66256;SDS011;53049;43.446;3.698;2022-10-22T05:31:09;11.00;;;5.10;;
66256;SDS011;53049;43.446;3.698;2022-10-22T05:33:36;14.30;;;5.20;;
66256;SDS011;53049;43.446;3.698;2022-10-22T05:36:03;10.98;;;4.75;;
66256;SDS011;53049;43.446;3.698;2022-10-22T05:38:31;14.88;;;4.70;;
66256;SDS011;53049;43.446;3.698;2022-10-22T05:40:58;12.35;;;4.80;;
66256;SDS011;53049;43.446;3.698;2022-10-22T05:43:29;12.23;;;4.50;;
66256;SDS011;53049;43.446;3.698;2022-10-22T05:45:55;14.98;;;5.22;;
66256;SDS011;53049;43.446;3.698;2022-10-22T05:48:24;10.70;;;4.32;;
66256;SDS011;53049;43.446;3.698;2022-10-22T05:50:50;10.35;;;4.63;;
66256;SDS011;53049;43.446;3.698;2022-10-22T05:53:16;9.88;;;4.15;;
66256;SDS011;53049;43.446;3.698;2022-10-22T05:55:42;12.50;;;4.65;;
66256;SDS011;53049;43.446;3.698;2022-10-22T05:58:09;16.67;;;4.63;;
66256;SDS011;53049;43.446;3.698;2022-10-22T06:00:36;9.75;;;4.55;;
66256;SDS011;53049;43.446;3.698;2022-10-22T06:03:02;10.77;;;4.40;;
66256;SDS011;53049;43.446;3.698;2022-10-22T06:05:28;12.18;;;5.32;;
66256;SDS011;53049;43.446;3.698;2022-10-22T06:07:54;6.45;;;3.72;;
66256;SDS011;53049;43.446;3.698;2022-10-22T06:10:21;9.65;;;4.03;;
66256;SDS011;53049;43.446;3.698;2022-10-22T06:12:47;12.30;;;4.80;;
66256;SDS011;53049;43.446;3.698;2022-10-22T06:15:14;11.75;;;4.55;;
66256;SDS011;53049;43.446;3.698;2022-10-22T06:17:45;16.05;;;5.25;;
66256;SDS011;53049;43.446;3.698;2022-10-22T06:20:12;21.88;;;5.90;;
66256;SDS011;53049;43.446;3.698;2022-10-22T06:22:38;12.68;;;5.35;;
66256;SDS011;53049;43.446;3.698;2022-10-22T06:25:04;13.18;;;5.32;;
66256;SDS011;53049;43.446;3.698;2022-10-22T06:27:30;11.50;;;5.00;;
66256;SDS011;53049;43.446;3.698;2022-10-22T06:29:56;13.30;;;4.90;;
66256;SDS011;53049;43.446;3.698;2022-10-22T06:32:21;12.50;;;4.65;;
66256;SDS011;53049;43.446;3.698;2022-10-22T06:34:47;11.38;;;4.63;;
66256;SDS011;53049;43.446;3.698;2022-10-22T06:37:14;12.15;;;4.97;;
66256;SDS011;53049;43.446;3.698;2022-10-22T06:39:40;11.25;;;4.88;;
66256;SDS011;53049;43.446;3.698;2022-10-22T06:42:06;15.05;;;5.60;;
66256;SDS011;53049;43.446;3.698;2022-10-22T06:44:31;16.40;;;5.85;;
66256;SDS011;53049;43.446;3.698;2022-10-22T06:46:57;15.68;;;5.53;;
66256;SDS011;53049;43.446;3.698;2022-10-22T06:49:23;11.75;;;5.65;;
66256;SDS011;53049;43.446;3.698;2022-10-22T06:51:49;13.85;;;4.70;;
66256;SDS011;53049;43.446;3.698;2022-10-22T06:54:18;12.25;;;4.63;;
66256;SDS011;53049;43.446;3.698;2022-10-22T06:56:45;10.85;;;5.00;;
66256;SDS011;53049;43.446;3.698;2022-10-22T06:59:10;16.98;;;5.68;;
66256;SDS011;53049;43.446;3.698;2022-10-22T07:01:37;12.85;;;6.13;;
66256;SDS011;53049;43.446;3.698;2022-10-22T07:04:03;11.98;;;5.60;;
66256;SDS011;53049;43.446;3.698;2022-10-22T07:06:29;14.50;;;4.97;;
66256;SDS011;53049;43.446;3.698;2022-10-22T07:08:56;12.20;;;5.25;;
66256;SDS011;53049;43.446;3.698;2022-10-22T07:11:23;14.23;;;5.30;;
66256;SDS011;53049;43.446;3.698;2022-10-22T07:13:52;18.60;;;5.55;;
66256;SDS011;53049;43.446;3.698;2022-10-22T07:16:22;12.85;;;5.85;;
66256;SDS011;53049;43.446;3.698;2022-10-22T07:18:49;15.45;;;5.75;;
66256;SDS011;53049;43.446;3.698;2022-10-22T07:21:16;15.93;;;6.60;;
66256;SDS011;53049;43.446;3.698;2022-10-22T07:23:43;18.15;;;6.82;;
66256;SDS011;53049;43.446;3.698;2022-10-22T07:26:10;17.30;;;7.63;;
66256;SDS011;53049;43.446;3.698;2022-10-22T07:28:41;24.13;;;9.20;;
66256;SDS011;53049;43.446;3.698;2022-10-22T07:31:07;23.63;;;8.93;;
66256;SDS011;53049;43.446;3.698;2022-10-22T07:33:35;20.88;;;8.63;;
66256;SDS011;53049;43.446;3.698;2022-10-22T07:36:02;25.25;;;8.30;;
66256;SDS011;53049;43.446;3.698;2022-10-22T07:38:31;22.25;;;8.77;;
66256;SDS011;53049;43.446;3.698;2022-10-22T07:40:57;29.40;;;9.63;;
66256;SDS011;53049;43.446;3.698;2022-10-22T07:43:23;17.75;;;8.57;;
66256;SDS011;53049;43.446;3.698;2022-10-22T07:45:49;21.00;;;8.55;;
66256;SDS011;53049;43.446;3.698;2022-10-22T07:48:15;21.23;;;9.20;;
66256;SDS011;53049;43.446;3.698;2022-10-22T07:50:41;19.80;;;7.88;;
66256;SDS011;53049;43.446;3.698;2022-10-22T07:53:06;23.70;;;8.02;;
66256;SDS011;53049;43.446;3.698;2022-10-22T07:55:32;17.02;;;7.88;;
66256;SDS011;53049;43.446;3.698;2022-10-22T07:57:58;20.77;;;7.60;;
66256;SDS011;53049;43.446;3.698;2022-10-22T08:00:24;22.38;;;7.80;;
66256;SDS011;53049;43.446;3.698;2022-10-22T08:02:50;17.15;;;8.52;;
66256;SDS011;53049;43.446;3.698;2022-10-22T08:05:16;19.30;;;8.50;;
66256;SDS011;53049;43.446;3.698;2022-10-22T08:07:42;19.23;;;8.32;;
66256;SDS011;53049;43.446;3.698;2022-10-22T08:10:08;20.52;;;8.82;;
66256;SDS011;53049;43.446;3.698;2022-10-22T08:12:34;22.50;;;8.85;;
66256;SDS011;53049;43.446;3.698;2022-10-22T08:15:01;19.60;;;8.05;;
66256;SDS011;53049;43.446;3.698;2022-10-22T08:17:26;17.83;;;7.63;;
66256;SDS011;53049;43.446;3.698;2022-10-22T08:19:52;17.42;;;7.03;;
66256;SDS011;53049;43.446;3.698;2022-10-22T08:22:18;23.38;;;7.75;;
66256;SDS011;53049;43.446;3.698;2022-10-22T08:24:44;16.38;;;8.15;;
66256;SDS011;53049;43.446;3.698;2022-10-22T08:27:10;16.50;;;7.90;;
66256;SDS011;53049;43.446;3.698;2022-10-22T08:29:36;18.00;;;7.47;;
66256;SDS011;53049;43.446;3.698;2022-10-22T08:32:01;24.35;;;7.80;;
66256;SDS011;53049;43.446;3.698;2022-10-22T08:34:28;18.33;;;6.95;;
66256;SDS011;53049;43.446;3.698;2022-10-22T08:36:54;14.68;;;6.80;;
66256;SDS011;53049;43.446;3.698;2022-10-22T08:39:20;15.45;;;7.63;;
66256;SDS011;53049;43.446;3.698;2022-10-22T08:42:00;15.68;;;6.93;;
66256;SDS011;53049;43.446;3.698;2022-10-22T08:50:32;18.27;;;7.47;;
66256;SDS011;53049;43.446;3.698;2022-10-22T08:53:05;14.43;;;7.20;;
66256;SDS011;53049;43.446;3.698;2022-10-22T08:55:36;19.00;;;7.55;;
66256;SDS011;53049;43.446;3.698;2022-10-22T09:01:05;13.10;;;6.90;;
66256;SDS011;53049;43.446;3.698;2022-10-22T09:03:39;22.40;;;7.88;;
66256;SDS011;53049;43.446;3.698;2022-10-22T09:08:51;18.10;;;6.95;;
66256;SDS011;53049;43.446;3.698;2022-10-22T09:11:26;14.85;;;7.18;;
66256;SDS011;53049;43.446;3.698;2022-10-22T09:13:53;22.23;;;8.07;;
66256;SDS011;53049;43.446;3.698;2022-10-22T09:27:43;35.17;;;13.05;;
66256;SDS011;53049;43.446;3.698;2022-10-22T09:30:28;31.40;;;11.82;;
66256;SDS011;53049;43.446;3.698;2022-10-22T09:38:28;27.60;;;10.68;;
66256;SDS011;53049;43.446;3.698;2022-10-22T09:40:56;25.25;;;10.15;;
66256;SDS011;53049;43.446;3.698;2022-10-22T09:43:23;30.02;;;11.15;;
66256;SDS011;53049;43.446;3.698;2022-10-22T09:45:54;27.08;;;11.32;;
66256;SDS011;53049;43.446;3.698;2022-10-22T09:48:26;29.60;;;10.48;;
66256;SDS011;53049;43.446;3.698;2022-10-22T09:51:02;21.67;;;9.82;;
66256;SDS011;53049;43.446;3.698;2022-10-22T09:53:54;22.30;;;9.52;;
66256;SDS011;53049;43.446;3.698;2022-10-22T09:56:32;24.08;;;9.40;;
66256;SDS011;53049;43.446;3.698;2022-10-22T09:59:00;26.52;;;8.75;;
66256;SDS011;53049;43.446;3.698;2022-10-22T10:01:28;23.27;;;9.55;;
66256;SDS011;53049;43.446;3.698;2022-10-22T10:04:01;28.10;;;9.25;;
66256;SDS011;53049;43.446;3.698;2022-10-22T10:06:32;21.97;;;9.17;;
66256;SDS011;53049;43.446;3.698;2022-10-22T10:08:59;24.58;;;8.82;;
66256;SDS011;53049;43.446;3.698;2022-10-22T10:12:15;22.95;;;9.20;;
66256;SDS011;53049;43.446;3.698;2022-10-22T10:14:44;28.83;;;9.75;;
66256;SDS011;53049;43.446;3.698;2022-10-22T10:23:04;27.42;;;12.07;;
66256;SDS011;53049;43.446;3.698;2022-10-22T10:30:47;21.67;;;10.17;;
66256;SDS011;53049;43.446;3.698;2022-10-22T10:36:26;29.80;;;12.48;;
66256;SDS011;53049;43.446;3.698;2022-10-22T10:39:09;33.72;;;11.93;;
66256;SDS011;53049;43.446;3.698;2022-10-22T10:44:44;25.60;;;11.00;;
66256;SDS011;53049;43.446;3.698;2022-10-22T10:55:41;29.90;;;12.07;;
66256;SDS011;53049;43.446;3.698;2022-10-22T11:01:23;23.27;;;11.52;;
66256;SDS011;53049;43.446;3.698;2022-10-22T11:04:40;18.95;;;11.05;;
66256;SDS011;53049;43.446;3.698;2022-10-22T11:06:56;27.98;;;10.85;;
66256;SDS011;53049;43.446;3.698;2022-10-22T11:09:27;27.17;;;12.30;;
66256;SDS011;53049;43.446;3.698;2022-10-22T11:12:18;41.72;;;17.13;;
66256;SDS011;53049;43.446;3.698;2022-10-22T11:15:05;33.83;;;16.67;;
66256;SDS011;53049;43.446;3.698;2022-10-22T11:17:58;29.38;;;16.48;;
66256;SDS011;53049;43.446;3.698;2022-10-22T11:23:16;28.30;;;12.82;;
66256;SDS011;53049;43.446;3.698;2022-10-22T11:25:49;35.55;;;14.13;;
66256;SDS011;53049;43.446;3.698;2022-10-22T11:28:17;29.23;;;13.73;;
66256;SDS011;53049;43.446;3.698;2022-10-22T11:30:58;27.45;;;12.55;;
66256;SDS011;53049;43.446;3.698;2022-10-22T11:33:28;29.10;;;12.63;;
66256;SDS011;53049;43.446;3.698;2022-10-22T11:36:01;28.58;;;12.65;;
66256;SDS011;53049;43.446;3.698;2022-10-22T11:38:28;29.92;;;12.02;;
66256;SDS011;53049;43.446;3.698;2022-10-22T11:40:56;25.02;;;11.93;;
66256;SDS011;53049;43.446;3.698;2022-10-22T11:43:57;23.25;;;10.68;;
66256;SDS011;53049;43.446;3.698;2022-10-22T11:55:10;29.35;;;10.98;;
66256;SDS011;53049;43.446;3.698;2022-10-22T11:57:55;29.70;;;11.75;;
66256;SDS011;53049;43.446;3.698;2022-10-22T12:00:33;33.33;;;10.93;;
66256;SDS011;53049;43.446;3.698;2022-10-22T12:03:17;25.23;;;11.38;;
66256;SDS011;53049;43.446;3.698;2022-10-22T12:08:29;23.60;;;9.88;;
66256;SDS011;53049;43.446;3.698;2022-10-22T12:11:11;30.52;;;10.80;;
66256;SDS011;53049;43.446;3.698;2022-10-22T12:13:52;27.02;;;11.52;;
66256;SDS011;53049;43.446;3.698;2022-10-22T12:16:28;24.77;;;9.27;;
66256;SDS011;53049;43.446;3.698;2022-10-22T12:19:44;29.03;;;10.07;;
66256;SDS011;53049;43.446;3.698;2022-10-22T12:22:01;23.58;;;9.80;;
66256;SDS011;53049;43.446;3.698;2022-10-22T12:24:53;29.30;;;10.18;;
66256;SDS011;53049;43.446;3.698;2022-10-22T12:27:25;30.75;;;10.70;;
66256;SDS011;53049;43.446;3.698;2022-10-22T12:29:58;33.75;;;9.55;;
66256;SDS011;53049;43.446;3.698;2022-10-22T12:32:32;21.70;;;9.80;;
66256;SDS011;53049;43.446;3.698;2022-10-22T12:35:02;27.85;;;10.93;;
66256;SDS011;53049;43.446;3.698;2022-10-22T12:37:29;25.92;;;9.45;;
66256;SDS011;53049;43.446;3.698;2022-10-22T12:39:55;22.83;;;8.98;;
66256;SDS011;53049;43.446;3.698;2022-10-22T12:42:20;24.95;;;10.13;;
66256;SDS011;53049;43.446;3.698;2022-10-22T12:44:47;30.90;;;10.07;;
66256;SDS011;53049;43.446;3.698;2022-10-22T12:47:19;25.85;;;10.48;;
66256;SDS011;53049;43.446;3.698;2022-10-22T12:49:47;27.08;;;10.27;;
66256;SDS011;53049;43.446;3.698;2022-10-22T12:52:18;25.60;;;10.25;;
66256;SDS011;53049;43.446;3.698;2022-10-22T12:54:46;25.90;;;10.70;;
66256;SDS011;53049;43.446;3.698;2022-10-22T12:57:16;25.65;;;10.23;;
66256;SDS011;53049;43.446;3.698;2022-10-22T12:59:45;28.48;;;10.68;;
66256;SDS011;53049;43.446;3.698;2022-10-22T13:02:23;24.63;;;10.10;;
66256;SDS011;53049;43.446;3.698;2022-10-22T13:07:42;26.15;;;10.30;;
66256;SDS011;53049;43.446;3.698;2022-10-22T13:10:31;29.70;;;11.35;;
66256;SDS011;53049;43.446;3.698;2022-10-22T13:12:58;26.80;;;10.23;;
66256;SDS011;53049;43.446;3.698;2022-10-22T13:18:15;26.67;;;11.35;;
66256;SDS011;53049;43.446;3.698;2022-10-22T13:20:49;35.50;;;10.60;;
66256;SDS011;53049;43.446;3.698;2022-10-22T13:23:18;30.27;;;11.85;;
66256;SDS011;53049;43.446;3.698;2022-10-22T13:25:55;29.10;;;11.13;;
66256;SDS011;53049;43.446;3.698;2022-10-22T13:28:40;28.63;;;10.55;;
66256;SDS011;53049;43.446;3.698;2022-10-22T13:31:08;28.58;;;10.27;;
66256;SDS011;53049;43.446;3.698;2022-10-22T13:33:40;23.58;;;10.40;;
66256;SDS011;53049;43.446;3.698;2022-10-22T13:36:12;29.60;;;10.98;;
66256;SDS011;53049;43.446;3.698;2022-10-22T13:38:40;27.77;;;10.02;;
66256;SDS011;53049;43.446;3.698;2022-10-22T13:41:19;26.67;;;10.45;;
66256;SDS011;53049;43.446;3.698;2022-10-22T13:43:46;23.88;;;10.23;;
66256;SDS011;53049;43.446;3.698;2022-10-22T13:46:13;24.52;;;10.48;;
66256;SDS011;53049;43.446;3.698;2022-10-22T13:48:39;23.85;;;9.30;;
66256;SDS011;53049;43.446;3.698;2022-10-22T13:51:15;23.13;;;9.70;;
66256;SDS011;53049;43.446;3.698;2022-10-22T13:53:46;25.67;;;10.40;;
66256;SDS011;53049;43.446;3.698;2022-10-22T13:56:14;24.67;;;10.05;;
66256;SDS011;53049;43.446;3.698;2022-10-22T13:58:42;22.83;;;10.25;;
66256;SDS011;53049;43.446;3.698;2022-10-22T14:01:29;24.40;;;10.30;;
66256;SDS011;53049;43.446;3.698;2022-10-22T14:03:56;25.58;;;10.98;;
66256;SDS011;53049;43.446;3.698;2022-10-22T14:06:24;29.33;;;10.13;;
66256;SDS011;53049;43.446;3.698;2022-10-22T14:08:59;24.67;;;10.60;;
66256;SDS011;53049;43.446;3.698;2022-10-22T14:11:33;28.80;;;11.15;;
66256;SDS011;53049;43.446;3.698;2022-10-22T14:13:59;26.30;;;11.68;;
66256;SDS011;53049;43.446;3.698;2022-10-22T14:16:27;24.70;;;10.32;;
66256;SDS011;53049;43.446;3.698;2022-10-22T14:18:55;29.88;;;12.93;;
66256;SDS011;53049;43.446;3.698;2022-10-22T14:21:21;31.30;;;10.90;;
66256;SDS011;53049;43.446;3.698;2022-10-22T14:23:47;22.77;;;9.85;;
66256;SDS011;53049;43.446;3.698;2022-10-22T14:26:26;26.42;;;10.82;;
66256;SDS011;53049;43.446;3.698;2022-10-22T14:28:55;30.33;;;11.60;;
66256;SDS011;53049;43.446;3.698;2022-10-22T14:31:21;28.73;;;10.95;;
66256;SDS011;53049;43.446;3.698;2022-10-22T14:33:47;28.08;;;10.25;;
66256;SDS011;53049;43.446;3.698;2022-10-22T14:36:14;18.17;;;9.40;;
66256;SDS011;53049;43.446;3.698;2022-10-22T14:38:41;27.63;;;10.30;;
66256;SDS011;53049;43.446;3.698;2022-10-22T14:41:21;24.55;;;8.93;;
66256;SDS011;53049;43.446;3.698;2022-10-22T14:43:48;26.73;;;9.00;;
66256;SDS011;53049;43.446;3.698;2022-10-22T14:46:16;23.10;;;8.77;;
66256;SDS011;53049;43.446;3.698;2022-10-22T14:48:42;19.85;;;9.23;;
66256;SDS011;53049;43.446;3.698;2022-10-22T14:51:18;18.70;;;8.30;;
66256;SDS011;53049;43.446;3.698;2022-10-22T14:53:45;17.10;;;7.40;;
66256;SDS011;53049;43.446;3.698;2022-10-22T14:56:12;21.17;;;7.60;;
66256;SDS011;53049;43.446;3.698;2022-10-22T14:58:40;16.00;;;7.05;;
66256;SDS011;53049;43.446;3.698;2022-10-22T15:01:06;17.40;;;7.53;;
66256;SDS011;53049;43.446;3.698;2022-10-22T15:03:32;19.77;;;7.82;;
66256;SDS011;53049;43.446;3.698;2022-10-22T15:05:58;21.13;;;8.68;;
66256;SDS011;53049;43.446;3.698;2022-10-22T15:08:24;20.77;;;7.18;;
66256;SDS011;53049;43.446;3.698;2022-10-22T15:11:04;24.48;;;8.23;;
66256;SDS011;53049;43.446;3.698;2022-10-22T15:13:35;23.05;;;9.65;;
66256;SDS011;53049;43.446;3.698;2022-10-22T15:16:04;23.80;;;8.65;;
66256;SDS011;53049;43.446;3.698;2022-10-22T15:18:31;24.88;;;9.50;;
66256;SDS011;53049;43.446;3.698;2022-10-22T15:21:01;20.67;;;9.48;;
66256;SDS011;53049;43.446;3.698;2022-10-22T15:23:32;25.60;;;10.25;;
66256;SDS011;53049;43.446;3.698;2022-10-22T15:25:57;34.10;;;9.75;;
66256;SDS011;53049;43.446;3.698;2022-10-22T15:28:23;24.77;;;10.63;;
66256;SDS011;53049;43.446;3.698;2022-10-22T15:30:56;32.78;;;10.60;;
66256;SDS011;53049;43.446;3.698;2022-10-22T15:33:23;32.13;;;11.18;;
66256;SDS011;53049;43.446;3.698;2022-10-22T15:35:50;27.45;;;10.57;;
66256;SDS011;53049;43.446;3.698;2022-10-22T15:38:16;28.65;;;9.68;;
66256;SDS011;53049;43.446;3.698;2022-10-22T15:40:42;25.38;;;9.95;;
66256;SDS011;53049;43.446;3.698;2022-10-22T15:43:08;27.50;;;9.77;;
66256;SDS011;53049;43.446;3.698;2022-10-22T15:45:34;24.92;;;10.13;;
66256;SDS011;53049;43.446;3.698;2022-10-22T15:48:00;27.25;;;10.30;;
66256;SDS011;53049;43.446;3.698;2022-10-22T15:50:25;24.52;;;10.10;;
66256;SDS011;53049;43.446;3.698;2022-10-22T15:52:51;25.38;;;9.60;;
66256;SDS011;53049;43.446;3.698;2022-10-22T15:55:18;24.92;;;10.55;;
66256;SDS011;53049;43.446;3.698;2022-10-22T15:57:44;24.98;;;10.23;;
66256;SDS011;53049;43.446;3.698;2022-10-22T16:00:10;28.08;;;10.15;;
66256;SDS011;53049;43.446;3.698;2022-10-22T16:02:36;28.15;;;9.73;;
66256;SDS011;53049;43.446;3.698;2022-10-22T16:05:02;26.90;;;9.73;;
66256;SDS011;53049;43.446;3.698;2022-10-22T16:07:28;20.27;;;9.40;;
66256;SDS011;53049;43.446;3.698;2022-10-22T16:09:58;31.55;;;8.77;;
66256;SDS011;53049;43.446;3.698;2022-10-22T16:12:24;20.65;;;8.95;;
66256;SDS011;53049;43.446;3.698;2022-10-22T16:14:50;20.73;;;8.57;;
66256;SDS011;53049;43.446;3.698;2022-10-22T16:17:16;21.70;;;9.23;;
66256;SDS011;53049;43.446;3.698;2022-10-22T16:19:42;22.00;;;8.52;;
66256;SDS011;53049;43.446;3.698;2022-10-22T16:22:07;26.80;;;9.23;;
66256;SDS011;53049;43.446;3.698;2022-10-22T16:24:35;20.05;;;8.85;;
66256;SDS011;53049;43.446;3.698;2022-10-22T16:27:05;19.08;;;8.02;;
66256;SDS011;53049;43.446;3.698;2022-10-22T16:29:31;19.77;;;7.88;;
66256;SDS011;53049;43.446;3.698;2022-10-22T16:31:57;20.90;;;7.47;;